createdAt,value
2022-09-15T00:01:52.934Z,15.26
2022-09-15T00:04:23.459Z,15.18
2022-09-15T00:06:51.510Z,15.26
2022-09-15T00:09:20.888Z,15.25
2022-09-15T00:11:50.344Z,15.28
2022-09-15T00:14:19.709Z,15.28
2022-09-15T00:16:48.945Z,15.40
2022-09-15T00:19:18.108Z,15.29
2022-09-15T00:21:48.899Z,15.30
2022-09-15T00:24:16.970Z,15.33
2022-09-15T00:26:46.355Z,15.23
2022-09-15T00:29:15.650Z,15.33
2022-09-15T00:31:44.929Z,15.26
2022-09-15T00:34:14.799Z,15.16
2022-09-15T00:36:43.958Z,15.21
2022-09-15T00:39:14.869Z,15.26
2022-09-15T00:41:43.086Z,15.19
2022-09-15T00:44:47.628Z,15.27
2022-09-15T00:47:20.090Z,15.05
2022-09-15T00:49:59.076Z,14.91
2022-09-15T00:52:34.771Z,14.85
2022-09-15T00:55:10.232Z,14.77
2022-09-15T00:57:43.942Z,14.76
2022-09-15T01:00:18.242Z,14.76
2022-09-15T01:02:48.638Z,14.81
2022-09-15T01:05:22.177Z,14.79
2022-09-15T01:07:54.853Z,14.73
2022-09-15T01:10:28.939Z,14.77
2022-09-15T01:13:02.667Z,14.73
2022-09-15T01:20:27.455Z,14.74
2022-09-15T01:23:14.332Z,14.70
2022-09-15T01:26:04.754Z,14.70
2022-09-15T01:28:50.262Z,14.72
2022-09-15T01:31:24.980Z,14.70
2022-09-15T01:33:58.855Z,14.71
2022-09-15T01:36:34.920Z,14.68
2022-09-15T01:39:11.450Z,14.69
2022-09-15T01:41:48.568Z,14.69
2022-09-15T01:44:20.789Z,14.66
2022-09-15T01:46:55.926Z,14.66
2022-09-15T01:49:28.398Z,14.56
2022-09-15T01:51:59.256Z,14.51
2022-09-15T01:54:33.805Z,14.45
2022-09-15T01:57:05.121Z,14.46
2022-09-15T01:59:35.963Z,14.43
2022-09-15T02:02:11.036Z,14.46
2022-09-15T02:04:46.314Z,14.42
2022-09-15T02:07:27.062Z,14.33
2022-09-15T02:09:58.331Z,14.22
2022-09-15T02:12:34.818Z,14.16
2022-09-15T02:15:08.991Z,14.15
2022-09-15T02:17:42.601Z,14.16
2022-09-15T02:20:16.535Z,14.08
2022-09-15T02:22:50.390Z,14.08
2022-09-15T02:25:25.827Z,13.98
2022-09-15T02:28:00.933Z,13.94
2022-09-15T02:30:33.311Z,13.96
2022-09-15T02:33:08.331Z,13.85
2022-09-15T02:35:40.100Z,13.90
2022-09-15T02:38:12.331Z,13.85
2022-09-15T02:40:44.411Z,13.80
2022-09-15T02:43:16.583Z,13.83
2022-09-15T02:45:46.792Z,13.81
2022-09-15T02:48:17.643Z,13.78
2022-09-15T02:50:46.957Z,13.79
2022-09-15T02:53:16.533Z,13.84
2022-09-15T02:55:45.839Z,13.78
2022-09-15T02:58:15.138Z,13.86
2022-09-15T03:00:44.767Z,13.79
2022-09-15T03:03:17.338Z,13.83
2022-09-15T03:05:47.840Z,13.81
2022-09-15T03:08:18.703Z,13.90
2022-09-15T03:10:50.149Z,13.90
2022-09-15T03:13:21.174Z,13.96
2022-09-15T03:15:52.076Z,14.09
2022-09-15T03:18:24.367Z,13.99
2022-09-15T03:20:57.651Z,14.06
2022-09-15T03:23:28.732Z,14.00
2022-09-15T03:26:00.263Z,14.03
2022-09-15T03:28:31.282Z,14.17
2022-09-15T03:31:02.368Z,14.22
2022-09-15T03:33:34.824Z,14.19
2022-09-15T03:36:07.502Z,14.32
2022-09-15T03:38:38.486Z,14.39
2022-09-15T03:41:11.938Z,14.47
2022-09-15T03:43:42.813Z,14.40
2022-09-15T03:46:15.179Z,14.36
2022-09-15T03:48:47.891Z,14.39
2022-09-15T03:51:18.778Z,14.33
2022-09-15T03:53:49.619Z,14.48
2022-09-15T03:56:24.341Z,14.35
2022-09-15T03:58:55.620Z,14.40
2022-09-15T04:01:26.856Z,14.44
2022-09-15T04:03:59.475Z,14.38
2022-09-15T04:06:31.116Z,14.40
2022-09-15T04:09:02.076Z,14.36
2022-09-15T04:11:33.493Z,14.42
2022-09-15T04:14:03.011Z,14.28
2022-09-15T04:16:32.903Z,14.42
2022-09-15T04:19:04.075Z,14.34
2022-09-15T04:21:32.562Z,14.37
2022-09-15T04:24:04.723Z,14.40
2022-09-15T04:26:36.812Z,14.39
2022-09-15T04:29:13.323Z,14.32
2022-09-15T04:31:44.575Z,14.17
2022-09-15T04:34:15.623Z,14.22
2022-09-15T04:36:44.074Z,14.11
2022-09-15T04:39:13.974Z,14.07
2022-09-15T04:41:44.711Z,14.04
2022-09-15T04:44:14.434Z,13.87
2022-09-15T04:46:44.497Z,14.01
2022-09-15T04:49:16.236Z,13.92
2022-09-15T04:51:47.016Z,13.90
2022-09-15T04:54:16.699Z,13.86
2022-09-15T04:56:47.215Z,13.89
2022-09-15T04:59:18.680Z,13.82
2022-09-15T05:01:49.220Z,13.77
2022-09-15T05:04:21.298Z,13.93
2022-09-15T05:06:49.670Z,13.83
2022-09-15T05:09:19.825Z,13.91
2022-09-15T05:11:49.679Z,13.82
2022-09-15T05:14:19.499Z,13.67
2022-09-15T05:16:49.522Z,13.66
2022-09-15T05:19:19.647Z,13.73
2022-09-15T05:21:50.332Z,13.82
2022-09-15T05:24:18.872Z,13.76
2022-09-15T05:26:48.484Z,13.94
2022-09-15T05:29:18.142Z,13.92
2022-09-15T05:31:48.475Z,13.85
2022-09-15T05:34:18.371Z,13.83
2022-09-15T05:36:47.936Z,13.90
2022-09-15T05:39:19.432Z,14.06
2022-09-15T05:41:47.705Z,14.02
2022-09-15T05:44:17.542Z,13.97
2022-09-15T05:46:47.101Z,14.18
2022-09-15T05:49:16.931Z,14.11
2022-09-15T05:51:46.928Z,14.16
2022-09-15T05:54:16.579Z,14.30
2022-09-15T05:56:47.746Z,14.41
2022-09-15T05:59:16.113Z,14.38
2022-09-15T06:01:45.815Z,14.45
2022-09-15T06:04:15.483Z,14.64
2022-09-15T06:06:46.320Z,14.58
2022-09-15T06:09:16.250Z,14.60
2022-09-15T06:11:47.409Z,14.82
2022-09-15T06:14:18.278Z,14.55
2022-09-15T06:16:49.132Z,14.73
2022-09-15T06:19:20.066Z,14.76
2022-09-15T06:21:51.066Z,14.60
2022-09-15T06:24:22.045Z,14.79
2022-09-15T06:26:54.385Z,14.90
2022-09-15T06:29:25.286Z,15.04
2022-09-15T06:31:57.085Z,15.33
2022-09-15T06:34:28.078Z,15.34
2022-09-15T06:36:59.249Z,15.61
2022-09-15T06:39:30.164Z,16.00
2022-09-15T06:42:04.236Z,15.85
2022-09-15T06:44:38.584Z,15.54
2022-09-15T06:47:10.481Z,15.56
2022-09-15T06:49:41.333Z,15.53
2022-09-15T06:52:12.259Z,15.71
2022-09-15T06:54:43.124Z,15.61
2022-09-15T06:57:15.580Z,15.45
2022-09-15T06:59:46.466Z,15.40
2022-09-15T07:02:17.398Z,15.37
2022-09-15T07:04:46.656Z,15.35
2022-09-15T07:07:16.035Z,15.31
2022-09-15T07:09:48.934Z,15.42
2022-09-15T07:12:21.442Z,15.66
2022-09-15T07:14:51.695Z,15.51
2022-09-15T07:17:22.676Z,15.57
2022-09-15T07:19:53.559Z,15.64
2022-09-15T07:22:25.602Z,15.68
2022-09-15T07:24:56.516Z,15.66
2022-09-15T07:27:31.606Z,15.74
2022-09-15T07:30:03.769Z,15.94
2022-09-15T07:32:32.653Z,15.65
2022-09-15T07:35:03.532Z,15.91
2022-09-15T07:37:35.980Z,15.92
2022-09-15T07:40:08.129Z,15.70
2022-09-15T07:42:43.138Z,15.84
2022-09-15T07:45:14.081Z,16.06
2022-09-15T07:47:44.485Z,16.13
2022-09-15T07:50:15.512Z,16.06
2022-09-15T07:52:46.402Z,16.17
2022-09-15T07:55:18.349Z,16.12
2022-09-15T07:57:57.643Z,16.26
2022-09-15T08:00:27.953Z,16.49
2022-09-15T08:02:56.141Z,16.27
2022-09-15T08:05:28.229Z,16.28
2022-09-15T08:07:59.198Z,16.14
2022-09-15T08:10:30.143Z,16.25
2022-09-15T08:13:02.669Z,16.29
2022-09-15T08:15:36.572Z,16.48
2022-09-15T08:18:07.613Z,16.37
2022-09-15T08:20:39.356Z,16.20
2022-09-15T08:23:11.044Z,16.25
2022-09-15T08:25:41.940Z,16.42
2022-09-15T08:28:14.299Z,16.57
2022-09-15T08:30:45.340Z,16.57
2022-09-15T08:33:16.334Z,16.24
2022-09-15T08:35:47.329Z,16.21
2022-09-15T08:38:18.192Z,16.13
2022-09-15T08:40:49.153Z,16.35
2022-09-15T08:43:25.072Z,16.42
2022-09-15T08:45:58.637Z,16.64
2022-09-15T08:48:33.027Z,16.74
2022-09-15T08:51:09.363Z,17.00
2022-09-15T08:53:45.575Z,17.29
2022-09-15T08:56:18.272Z,16.89
2022-09-15T08:58:48.260Z,16.60
2022-09-15T09:01:24.110Z,16.77
2022-09-15T09:04:10.287Z,16.66
2022-09-15T09:06:47.232Z,16.81
2022-09-15T09:09:23.384Z,16.66
2022-09-15T09:12:03.775Z,16.80
2022-09-15T09:14:42.542Z,17.47
2022-09-15T09:17:29.840Z,17.37
2022-09-15T09:20:19.123Z,17.49
2022-09-15T09:22:51.659Z,16.69
2022-09-15T09:25:27.648Z,16.91
2022-09-15T09:27:59.665Z,17.68
2022-09-15T09:30:34.300Z,18.04
2022-09-15T09:33:16.792Z,17.88
2022-09-15T09:35:51.507Z,17.16
2022-09-15T09:38:26.170Z,17.45
2022-09-15T09:41:01.429Z,18.18
2022-09-15T09:43:35.685Z,17.75
2022-09-15T09:46:14.996Z,18.20
2022-09-15T09:48:50.054Z,17.92
2022-09-15T09:51:37.369Z,18.25
2022-09-15T09:54:16.398Z,17.48
2022-09-15T09:56:48.932Z,17.03
2022-09-15T09:59:40.491Z,17.04
2022-09-15T10:02:18.846Z,17.42
2022-09-15T10:04:51.068Z,17.96
2022-09-15T10:07:24.108Z,18.11
2022-09-15T10:09:56.814Z,17.81
2022-09-15T10:12:31.591Z,17.70
2022-09-15T10:15:04.347Z,17.70
2022-09-15T10:17:42.984Z,18.05
2022-09-15T10:20:33.342Z,17.98
2022-09-15T10:23:07.141Z,17.79
2022-09-15T10:25:58.055Z,18.26
2022-09-15T10:28:29.860Z,18.68
2022-09-15T10:31:06.357Z,18.96
2022-09-15T10:33:38.914Z,18.96
2022-09-15T10:36:11.992Z,19.17
2022-09-15T10:38:45.464Z,18.50
2022-09-15T10:41:24.964Z,18.16
2022-09-15T10:44:15.137Z,18.27
2022-09-15T10:46:51.929Z,18.24
2022-09-15T10:49:37.469Z,18.36
2022-09-15T10:52:14.038Z,18.74
2022-09-15T10:54:59.662Z,19.23
2022-09-15T10:57:45.790Z,19.68
2022-09-15T11:00:20.907Z,19.95
2022-09-15T11:03:13.060Z,19.68
2022-09-15T11:05:52.984Z,19.59
2022-09-15T11:08:40.773Z,19.62
2022-09-15T11:11:19.700Z,19.98
2022-09-15T11:14:04.631Z,19.04
2022-09-15T11:16:46.183Z,18.10
2022-09-15T11:19:37.255Z,18.04
2022-09-15T11:22:13.322Z,18.23
2022-09-15T11:24:47.951Z,18.62
2022-09-15T11:27:22.332Z,18.52
2022-09-15T11:30:06.191Z,19.16
2022-09-15T11:32:40.421Z,19.23
2022-09-15T11:35:29.186Z,18.70
2022-09-15T11:38:11.054Z,18.05
2022-09-15T11:40:48.503Z,18.20
2022-09-15T11:43:22.856Z,18.31
2022-09-15T11:45:56.793Z,18.32
2022-09-15T11:48:32.031Z,18.21
2022-09-15T11:51:04.369Z,19.57
2022-09-15T11:53:40.924Z,19.36
2022-09-15T11:56:17.032Z,19.12
2022-09-15T11:59:03.697Z,18.88
2022-09-15T12:01:39.887Z,19.83
2022-09-15T12:04:14.531Z,19.12
2022-09-15T12:06:46.287Z,18.43
2022-09-15T12:09:19.620Z,18.49
2022-09-15T12:11:52.887Z,19.07
2022-09-15T12:14:29.371Z,18.93
2022-09-15T12:17:00.474Z,19.49
2022-09-15T12:19:53.719Z,19.87
2022-09-15T12:22:28.998Z,20.05
2022-09-15T12:25:04.470Z,19.92
2022-09-15T12:27:35.348Z,19.50
2022-09-15T12:30:07.410Z,19.70
2022-09-15T12:32:40.251Z,18.81
2022-09-15T12:35:33.186Z,18.81
2022-09-15T12:38:04.780Z,19.56
2022-09-15T12:40:37.237Z,18.87
2022-09-15T12:43:19.081Z,19.77
2022-09-15T12:45:56.020Z,19.55
2022-09-15T12:48:28.178Z,18.65
2022-09-15T12:51:00.982Z,18.40
2022-09-15T12:53:32.058Z,18.43
2022-09-15T12:56:07.048Z,18.42
2022-09-15T12:58:39.176Z,18.41
2022-09-15T13:01:37.761Z,18.22
2022-09-15T13:04:26.903Z,18.17
2022-09-15T13:07:34.972Z,17.61
2022-09-15T13:10:37.114Z,17.44
2022-09-15T13:13:33.397Z,17.71
2022-09-15T13:16:07.722Z,16.87
2022-09-15T13:18:38.142Z,16.28
2022-09-15T13:21:08.966Z,16.22
2022-09-15T13:23:42.825Z,16.49
2022-09-15T13:26:17.747Z,16.68
2022-09-15T13:28:52.756Z,16.85
2022-09-15T13:31:35.457Z,16.87
2022-09-15T13:38:21.233Z,17.13
2022-09-15T13:41:42.877Z,16.93
2022-09-15T13:44:43.020Z,17.32
2022-09-15T13:47:20.073Z,17.57
2022-09-15T13:49:54.999Z,17.26
2022-09-15T13:52:43.829Z,17.19
2022-09-15T13:55:21.668Z,16.82
2022-09-15T14:00:55.349Z,16.67
2022-09-15T14:03:29.685Z,16.86
2022-09-15T14:06:00.769Z,17.18
2022-09-15T14:08:33.842Z,17.12
2022-09-15T14:11:08.853Z,17.40
2022-09-15T14:13:43.737Z,17.20
2022-09-15T14:16:25.450Z,17.58
2022-09-15T14:18:58.523Z,17.81
2022-09-15T14:21:31.234Z,18.90
2022-09-15T14:24:05.558Z,19.76
2022-09-15T14:26:37.013Z,20.21
2022-09-15T14:29:08.343Z,20.42
2022-09-15T14:31:41.528Z,20.64
2022-09-15T14:34:18.085Z,20.44
2022-09-15T14:37:00.347Z,20.61
2022-09-15T14:39:31.694Z,20.10
2022-09-15T14:42:10.847Z,19.58
2022-09-15T14:47:34.441Z,18.44
2022-09-15T14:50:09.701Z,18.08
2022-09-15T14:52:43.143Z,18.58
2022-09-15T14:55:16.827Z,18.49
2022-09-15T14:57:52.634Z,18.13
2022-09-15T15:00:25.393Z,17.50
2022-09-15T15:03:04.209Z,17.19
2022-09-15T15:05:40.538Z,16.94
2022-09-15T15:08:16.222Z,16.83
2022-09-15T15:10:47.235Z,16.45
2022-09-15T15:13:18.953Z,16.36
2022-09-15T15:15:50.326Z,16.77
2022-09-15T15:18:38.900Z,17.90
2022-09-15T15:21:36.732Z,18.88
2022-09-15T15:24:25.439Z,19.21
2022-09-15T15:26:56.330Z,18.36
2022-09-15T15:29:40.757Z,18.11
2022-09-15T15:32:13.677Z,18.33
2022-09-15T15:34:53.514Z,18.73
2022-09-15T15:37:27.631Z,18.99
2022-09-15T15:39:59.903Z,19.72
2022-09-15T15:42:30.980Z,19.70
2022-09-15T15:45:05.774Z,19.03
2022-09-15T15:47:37.584Z,19.06
2022-09-15T15:50:15.415Z,19.20
2022-09-15T15:52:46.475Z,18.48
2022-09-15T15:55:18.775Z,18.39
2022-09-15T15:57:51.278Z,18.72
2022-09-15T16:00:23.718Z,19.12
2022-09-15T16:02:54.862Z,18.39
2022-09-15T16:05:29.106Z,18.12
2022-09-15T16:08:03.995Z,18.02
2022-09-15T16:10:40.445Z,18.87
2022-09-15T16:13:15.129Z,18.50
2022-09-15T16:15:46.438Z,18.73
2022-09-15T16:18:17.570Z,18.36
2022-09-15T16:20:49.931Z,18.42
2022-09-15T16:23:22.632Z,17.72
2022-09-15T16:25:55.192Z,17.36
2022-09-15T16:28:26.279Z,16.94
2022-09-15T16:30:57.685Z,17.38
2022-09-15T16:33:28.584Z,17.32
2022-09-15T16:36:06.775Z,16.98
2022-09-15T16:38:37.733Z,16.73
2022-09-15T16:41:14.188Z,16.38
2022-09-15T16:43:46.102Z,16.17
2022-09-15T16:46:17.593Z,16.05
2022-09-15T16:48:48.621Z,15.96
2022-09-15T16:51:28.882Z,16.04
2022-09-15T16:54:01.790Z,15.93
2022-09-15T16:56:32.764Z,15.84
2022-09-15T16:59:03.722Z,15.75
2022-09-15T17:01:34.735Z,15.84
2022-09-15T17:04:10.671Z,15.78
2022-09-15T17:06:43.041Z,15.59
2022-09-15T17:09:13.975Z,15.68
2022-09-15T17:11:44.921Z,15.70
2022-09-15T17:14:17.789Z,15.66
2022-09-15T17:16:52.685Z,15.65
2022-09-15T17:19:23.643Z,15.60
2022-09-15T17:21:55.974Z,15.53
2022-09-15T17:24:26.816Z,15.51
2022-09-15T17:26:57.686Z,15.44
2022-09-15T17:29:28.620Z,15.51
2022-09-15T17:31:59.520Z,15.47
2022-09-15T17:34:27.586Z,15.43
2022-09-15T17:36:59.069Z,15.43
2022-09-15T17:39:30.591Z,15.40
2022-09-15T17:44:36.981Z,15.25
2022-09-15T17:47:08.638Z,15.23
2022-09-15T17:49:39.549Z,15.23
2022-09-15T17:52:12.118Z,15.23
2022-09-15T17:54:43.016Z,15.17
2022-09-15T17:57:15.077Z,15.14
2022-09-15T17:59:43.333Z,15.10
2022-09-15T18:02:18.709Z,15.10
2022-09-15T18:04:49.220Z,15.01
2022-09-15T18:07:19.875Z,15.03
2022-09-15T18:09:48.246Z,15.05
2022-09-15T18:12:17.991Z,15.05
2022-09-15T18:14:46.701Z,14.90
2022-09-15T18:17:17.032Z,14.92
2022-09-15T18:19:45.169Z,14.92
2022-09-15T18:22:15.207Z,14.85
2022-09-15T18:24:46.036Z,14.83
2022-09-15T18:27:16.563Z,14.81
2022-09-15T18:29:45.630Z,14.89
2022-09-15T18:32:14.768Z,14.79
2022-09-15T18:34:44.211Z,14.80
2022-09-15T18:37:13.719Z,14.80
2022-09-15T18:39:43.343Z,14.79
2022-09-15T18:42:13.183Z,14.78
2022-09-15T18:44:41.261Z,14.71
2022-09-15T18:47:10.629Z,14.60
2022-09-15T18:49:40.398Z,14.66
2022-09-15T18:52:09.520Z,14.57
2022-09-15T18:54:38.993Z,14.48
2022-09-15T18:57:09.905Z,14.50
2022-09-15T18:59:40.484Z,14.57
2022-09-15T19:02:11.680Z,14.39
2022-09-15T19:04:43.040Z,14.44
2022-09-15T19:07:13.998Z,14.43
2022-09-15T19:09:44.878Z,14.28
2022-09-15T19:12:15.839Z,14.32
2022-09-15T19:14:48.365Z,14.33
2022-09-15T19:17:19.304Z,14.27
2022-09-15T19:19:50.203Z,14.08
2022-09-15T19:22:21.150Z,14.11
2022-09-15T19:24:52.133Z,14.07
2022-09-15T19:27:23.593Z,14.11
2022-09-15T19:29:55.901Z,14.11
2022-09-15T19:32:26.928Z,14.01
2022-09-15T19:34:57.889Z,13.92
2022-09-15T19:37:28.907Z,13.97
2022-09-15T19:39:59.889Z,13.90
2022-09-15T19:42:31.035Z,13.89
2022-09-15T19:45:03.402Z,13.83
2022-09-15T19:47:32.334Z,13.79
2022-09-15T19:50:03.354Z,13.77
2022-09-15T19:52:34.431Z,13.78
2022-09-15T19:55:06.757Z,13.68
2022-09-15T19:57:39.693Z,13.73
2022-09-15T20:00:12.811Z,13.68
2022-09-15T20:02:42.091Z,13.61
2022-09-15T20:05:13.088Z,13.60
2022-09-15T20:07:44.787Z,13.57
2022-09-15T20:10:16.164Z,13.59
2022-09-15T20:12:47.137Z,13.58
2022-09-15T20:15:19.394Z,13.49
2022-09-15T20:17:47.658Z,13.43
2022-09-15T20:20:18.627Z,13.48
2022-09-15T20:22:49.577Z,13.30
2022-09-15T20:25:20.770Z,13.32
2022-09-15T20:27:52.490Z,13.42
2022-09-15T20:30:24.808Z,13.47
2022-09-15T20:32:55.741Z,13.39
2022-09-15T20:35:26.646Z,13.42
2022-09-15T20:37:57.563Z,13.51
2022-09-15T20:40:28.531Z,13.44
2022-09-15T20:42:59.512Z,13.42
2022-09-15T20:45:36.468Z,13.47
2022-09-15T20:48:08.029Z,13.36
2022-09-15T20:50:38.929Z,13.45
2022-09-15T20:53:09.911Z,13.41
2022-09-15T20:55:40.840Z,13.29
2022-09-15T20:58:11.704Z,13.36
2022-09-15T21:00:43.946Z,13.38
2022-09-15T21:03:15.914Z,13.37
2022-09-15T21:05:47.003Z,13.38
2022-09-15T21:08:17.868Z,13.28
2022-09-15T21:10:49.359Z,13.23
2022-09-15T21:13:20.226Z,13.16
2022-09-15T21:15:58.040Z,13.34
2022-09-15T21:18:32.547Z,13.28
2022-09-15T21:21:04.954Z,13.22
2022-09-15T21:23:40.062Z,13.22
2022-09-15T21:26:12.434Z,13.16
2022-09-15T21:28:43.564Z,13.12
2022-09-15T21:31:17.041Z,13.15
2022-09-15T21:33:49.166Z,13.17
2022-09-15T21:36:22.185Z,13.15
2022-09-15T21:38:54.545Z,13.13
2022-09-15T21:41:27.001Z,13.12
2022-09-15T21:43:59.087Z,12.98
2022-09-15T21:46:32.411Z,12.89
2022-09-15T21:49:03.446Z,12.95
2022-09-15T21:51:34.380Z,12.96
2022-09-15T21:54:05.492Z,12.95
2022-09-15T21:56:36.530Z,12.85
2022-09-15T21:59:08.149Z,12.81
2022-09-15T22:01:40.820Z,12.79
2022-09-15T22:04:11.863Z,12.83
2022-09-15T22:06:43.164Z,12.75
2022-09-15T22:09:15.679Z,12.69
2022-09-15T22:11:46.589Z,12.78
2022-09-15T22:14:17.723Z,12.82
2022-09-15T22:16:50.120Z,12.72
2022-09-15T22:19:21.498Z,12.68
2022-09-15T22:21:51.331Z,12.68
2022-09-15T22:24:20.818Z,12.73
2022-09-15T22:26:50.086Z,12.70
2022-09-15T22:29:19.278Z,12.72
2022-09-15T22:31:50.011Z,12.60
2022-09-15T22:34:17.905Z,12.58
2022-09-15T22:36:47.382Z,12.64
2022-09-15T22:39:16.789Z,12.71
2022-09-15T22:41:46.047Z,12.66
2022-09-15T22:44:20.972Z,12.72
2022-09-15T22:46:51.417Z,12.67
2022-09-15T22:49:19.883Z,12.64
2022-09-15T22:51:49.464Z,12.60
2022-09-15T22:54:18.739Z,12.55
2022-09-15T22:56:48.034Z,12.52
2022-09-15T22:59:17.273Z,12.60
2022-09-15T23:01:47.152Z,12.63
2022-09-15T23:04:18.093Z,12.58
2022-09-15T23:06:46.209Z,12.55
2022-09-15T23:09:16.114Z,12.52
2022-09-15T23:11:45.235Z,12.47
2022-09-15T23:14:16.106Z,12.63
2022-09-15T23:16:46.135Z,12.64
2022-09-15T23:19:15.492Z,12.50
2022-09-15T23:21:46.171Z,12.70
2022-09-15T23:24:15.005Z,12.72
2022-09-15T23:26:43.829Z,12.71
2022-09-15T23:29:13.437Z,12.85
2022-09-15T23:31:42.879Z,12.67
2022-09-15T23:34:12.348Z,12.80
2022-09-15T23:36:41.485Z,12.74
2022-09-15T23:39:12.188Z,12.69
2022-09-15T23:41:41.332Z,12.77
2022-09-15T23:44:11.162Z,12.83
2022-09-15T23:46:40.497Z,12.78
2022-09-15T23:49:10.007Z,12.80
2022-09-15T23:51:39.307Z,12.60
2022-09-15T23:54:08.695Z,12.62
2022-09-15T23:56:39.591Z,12.52
2022-09-15T23:59:08.121Z,12.45
